createdAt,value
2023-05-06T00:01:24.146Z,35.38
2023-05-06T00:03:51.519Z,32.10
2023-05-06T00:06:18.079Z,35.45
2023-05-06T00:08:45.901Z,34.15
2023-05-06T00:11:13.659Z,34.55
2023-05-06T00:13:40.582Z,34.08
2023-05-06T00:16:07.137Z,32.90
2023-05-06T00:18:33.700Z,33.00
2023-05-06T00:21:00.099Z,33.83
2023-05-06T00:23:26.512Z,32.75
2023-05-06T00:25:55.841Z,35.75
2023-05-06T00:28:22.291Z,35.15
2023-05-06T00:30:48.921Z,33.70
2023-05-06T00:33:15.374Z,37.13
2023-05-06T00:35:41.760Z,35.88
2023-05-06T00:38:14.013Z,33.63
2023-05-06T00:40:40.903Z,30.85
2023-05-06T00:43:07.378Z,34.30
2023-05-06T00:45:33.979Z,32.80
2023-05-06T00:48:00.988Z,31.48
2023-05-06T00:50:28.563Z,32.83
2023-05-06T00:52:56.839Z,33.85
2023-05-06T00:55:23.367Z,35.25
2023-05-06T00:57:50.435Z,33.05
2023-05-06T01:00:17.993Z,35.38
2023-05-06T01:02:47.922Z,36.13
2023-05-06T01:05:16.815Z,33.13
2023-05-06T01:08:31.449Z,33.60
2023-05-06T01:11:07.916Z,32.20
2023-05-06T01:13:44.309Z,32.30
2023-05-06T01:16:14.456Z,32.33
2023-05-06T01:18:43.517Z,34.33
2023-05-06T01:21:12.548Z,32.72
2023-05-06T01:23:58.571Z,36.53
2023-05-06T01:26:25.504Z,32.80
2023-05-06T01:28:52.463Z,34.35
2023-05-06T01:31:36.447Z,34.78
2023-05-06T01:34:18.328Z,35.78
2023-05-06T01:37:01.148Z,35.67
2023-05-06T01:39:30.766Z,33.75
2023-05-06T01:42:00.246Z,37.78
2023-05-06T01:44:29.190Z,35.08
2023-05-06T01:46:56.339Z,39.75
2023-05-06T01:49:26.086Z,35.65
2023-05-06T01:51:54.311Z,34.80
2023-05-06T01:54:20.845Z,38.83
2023-05-06T01:56:47.350Z,37.22
2023-05-06T01:59:13.742Z,36.65
2023-05-06T02:01:40.239Z,37.65
2023-05-06T02:04:06.954Z,35.80
2023-05-06T02:06:33.580Z,36.72
2023-05-06T02:08:59.970Z,37.17
2023-05-06T02:11:26.386Z,36.10
2023-05-06T02:13:52.840Z,39.03
2023-05-06T02:16:19.281Z,37.50
2023-05-06T02:18:45.833Z,38.67
2023-05-06T02:21:12.301Z,38.20
2023-05-06T02:23:38.778Z,38.10
2023-05-06T02:26:05.289Z,37.10
2023-05-06T02:28:31.715Z,40.33
2023-05-06T02:30:58.732Z,37.55
2023-05-06T02:33:25.164Z,37.42
2023-05-06T02:35:51.805Z,39.67
2023-05-06T02:38:18.986Z,39.38
2023-05-06T02:40:45.458Z,37.97
2023-05-06T02:43:11.919Z,41.47
2023-05-06T02:45:38.418Z,40.17
2023-05-06T02:48:05.187Z,39.83
2023-05-06T02:50:31.660Z,38.97
2023-05-06T02:52:58.031Z,42.33
2023-05-06T02:55:24.488Z,40.75
2023-05-06T02:57:50.894Z,38.50
2023-05-06T03:00:17.910Z,37.78
2023-05-06T03:02:44.583Z,36.65
2023-05-06T03:05:11.263Z,38.00
2023-05-06T03:07:38.748Z,38.55
2023-05-06T03:10:05.640Z,39.90
2023-05-06T03:12:32.151Z,37.58
2023-05-06T03:14:58.590Z,40.00
2023-05-06T03:17:25.039Z,38.53
2023-05-06T03:19:52.015Z,39.00
2023-05-06T03:22:18.405Z,39.00
2023-05-06T03:24:44.883Z,37.72
2023-05-06T03:27:11.358Z,36.85
2023-05-06T03:29:37.754Z,39.92
2023-05-06T03:32:04.814Z,38.15
2023-05-06T03:34:31.512Z,39.15
2023-05-06T03:36:58.171Z,40.00
2023-05-06T03:39:24.689Z,38.15
2023-05-06T03:41:51.243Z,36.83
2023-05-06T03:44:17.709Z,39.80
2023-05-06T03:46:44.164Z,36.97
2023-05-06T03:49:10.647Z,35.90
2023-05-06T03:51:37.278Z,36.17
2023-05-06T03:54:04.160Z,37.35
2023-05-06T03:56:30.614Z,38.30
2023-05-06T03:58:57.078Z,36.58
2023-05-06T04:01:23.472Z,39.20
2023-05-06T04:03:49.950Z,37.15
2023-05-06T04:06:16.406Z,36.90
2023-05-06T04:08:42.802Z,36.33
2023-05-06T04:11:09.222Z,39.90
2023-05-06T04:13:35.593Z,38.58
2023-05-06T04:16:02.861Z,36.90
2023-05-06T04:18:29.501Z,37.92
2023-05-06T04:20:56.127Z,36.00
2023-05-06T04:23:22.666Z,35.35
2023-05-06T04:25:49.271Z,36.42
2023-05-06T04:28:16.650Z,37.58
2023-05-06T04:30:44.124Z,40.00
2023-05-06T04:33:10.577Z,36.42
2023-05-06T04:35:37.426Z,38.25
2023-05-06T04:38:03.855Z,34.42
2023-05-06T04:40:30.673Z,39.25
2023-05-06T04:42:57.050Z,34.25
2023-05-06T04:45:24.323Z,35.47
2023-05-06T04:47:50.803Z,37.35
2023-05-06T04:50:17.252Z,35.10
2023-05-06T04:52:43.890Z,35.20
2023-05-06T04:55:11.192Z,32.95
2023-05-06T04:57:37.888Z,33.67
2023-05-06T05:00:04.642Z,36.50
2023-05-06T05:02:31.160Z,36.28
2023-05-06T05:04:57.643Z,36.65
2023-05-06T05:07:24.030Z,36.78
2023-05-06T05:09:50.441Z,36.58
2023-05-06T05:12:16.835Z,35.78
2023-05-06T05:14:43.220Z,37.47
2023-05-06T05:17:09.759Z,37.38
2023-05-06T05:19:36.362Z,36.30
2023-05-06T05:22:02.823Z,35.15
2023-05-06T05:24:30.569Z,37.47
2023-05-06T05:26:56.963Z,34.28
2023-05-06T05:29:23.327Z,34.60
2023-05-06T05:31:49.798Z,34.42
2023-05-06T05:34:16.198Z,35.13
2023-05-06T05:36:42.615Z,35.95
2023-05-06T05:39:09.197Z,36.75
2023-05-06T05:41:35.702Z,35.25
2023-05-06T05:44:02.248Z,37.42
2023-05-06T05:46:28.733Z,36.63
2023-05-06T05:48:55.214Z,35.72
2023-05-06T05:51:22.040Z,36.47
2023-05-06T05:53:48.557Z,35.17
2023-05-06T05:56:14.977Z,37.83
2023-05-06T05:58:41.729Z,36.63
2023-05-06T06:01:08.123Z,36.83
2023-05-06T06:03:34.677Z,39.33
2023-05-06T06:06:01.247Z,37.70
2023-05-06T06:08:29.729Z,35.35
2023-05-06T06:10:56.248Z,33.50
2023-05-06T06:13:22.795Z,34.47
2023-05-06T06:15:49.457Z,33.25
2023-05-06T06:18:15.944Z,31.15
2023-05-06T06:20:42.909Z,28.95
2023-05-06T06:23:09.485Z,31.80
2023-05-06T06:25:35.895Z,31.52
2023-05-06T06:28:02.350Z,28.80
2023-05-06T06:30:28.825Z,30.77
2023-05-06T06:32:56.513Z,30.38
2023-05-06T06:35:23.713Z,29.33
2023-05-06T06:37:50.508Z,26.98
2023-05-06T06:40:17.060Z,28.10
2023-05-06T06:42:43.602Z,28.77
2023-05-06T06:45:10.979Z,28.42
2023-05-06T06:47:37.689Z,28.00
2023-05-06T06:50:04.452Z,26.98
2023-05-06T06:52:30.922Z,29.13
2023-05-06T06:54:57.335Z,30.83
2023-05-06T06:57:23.800Z,28.08
2023-05-06T06:59:52.438Z,31.63
2023-05-06T07:02:19.256Z,28.88
2023-05-06T07:04:45.818Z,30.52
2023-05-06T07:07:12.559Z,28.13
2023-05-06T07:09:40.241Z,29.42
2023-05-06T07:12:07.663Z,28.70
2023-05-06T07:14:34.695Z,28.63
2023-05-06T07:17:01.197Z,28.73
2023-05-06T07:19:28.547Z,28.45
2023-05-06T07:21:55.492Z,28.92
2023-05-06T07:24:22.223Z,28.33
2023-05-06T07:26:48.744Z,27.35
2023-05-06T07:29:15.479Z,26.83
2023-05-06T07:31:42.136Z,26.25
2023-05-06T07:34:08.677Z,28.52
2023-05-06T07:36:40.390Z,29.63
2023-05-06T07:39:07.707Z,26.55
2023-05-06T07:41:34.214Z,28.15
2023-05-06T07:44:00.846Z,28.63
2023-05-06T07:46:27.382Z,27.60
2023-05-06T07:48:54.001Z,27.73
2023-05-06T07:51:20.652Z,27.13
2023-05-06T07:53:47.114Z,29.15
2023-05-06T07:56:14.083Z,27.70
2023-05-06T07:58:40.637Z,28.92
2023-05-06T08:01:07.094Z,28.45
2023-05-06T08:03:36.058Z,29.08
2023-05-06T08:06:02.673Z,28.92
2023-05-06T08:08:29.252Z,26.42
2023-05-06T08:10:56.103Z,28.55
2023-05-06T08:13:22.878Z,28.25
2023-05-06T08:15:49.439Z,26.98
2023-05-06T08:18:22.328Z,29.20
2023-05-06T08:20:49.534Z,28.17
2023-05-06T08:23:15.965Z,26.23
2023-05-06T08:25:42.808Z,26.50
2023-05-06T08:28:09.231Z,27.90
2023-05-06T08:30:35.850Z,27.35
2023-05-06T08:33:02.647Z,28.80
2023-05-06T08:35:29.223Z,25.83
2023-05-06T08:37:55.672Z,26.90
2023-05-06T08:40:23.405Z,24.05
2023-05-06T08:42:50.556Z,26.42
2023-05-06T08:45:17.798Z,23.25
2023-05-06T08:47:44.477Z,21.95
2023-05-06T08:50:20.338Z,22.25
2023-05-06T08:52:53.607Z,22.92
2023-05-06T08:55:26.600Z,21.77
2023-05-06T08:57:53.336Z,22.10
2023-05-06T09:00:20.437Z,15.85
2023-05-06T09:02:46.901Z,15.57
2023-05-06T09:05:13.730Z,16.85
2023-05-06T09:07:40.808Z,16.00
2023-05-06T09:10:12.581Z,18.27
2023-05-06T09:12:39.504Z,19.58
2023-05-06T09:15:06.606Z,19.95
2023-05-06T09:17:33.313Z,18.73
2023-05-06T09:19:59.852Z,18.83
2023-05-06T09:22:28.129Z,19.23
2023-05-06T09:24:58.444Z,17.63
2023-05-06T09:27:31.276Z,18.58
2023-05-06T09:30:06.485Z,16.70
2023-05-06T09:32:35.607Z,18.40
2023-05-06T09:35:03.844Z,18.65
2023-05-06T09:37:30.412Z,18.50
2023-05-06T09:39:59.059Z,17.15
2023-05-06T09:42:27.227Z,19.05
2023-05-06T09:44:55.192Z,18.80
2023-05-06T09:47:23.769Z,18.30
2023-05-06T09:49:50.415Z,18.40
2023-05-06T09:52:17.228Z,17.20
2023-05-06T09:54:44.478Z,18.30
2023-05-06T09:57:13.556Z,17.95
2023-05-06T09:59:41.729Z,20.10
2023-05-06T10:02:08.965Z,19.90
2023-05-06T10:04:37.351Z,17.83
2023-05-06T10:07:05.073Z,19.58
2023-05-06T10:09:32.710Z,21.50
2023-05-06T10:12:09.839Z,19.23
2023-05-06T10:14:37.119Z,19.88
2023-05-06T10:17:12.154Z,19.33
2023-05-06T10:19:46.631Z,20.35
2023-05-06T10:22:22.476Z,17.73
2023-05-06T10:25:03.510Z,20.10
2023-05-06T10:27:35.150Z,21.88
2023-05-06T10:30:01.716Z,18.58
2023-05-06T10:32:32.167Z,20.60
2023-05-06T10:35:09.525Z,21.77
2023-05-06T10:37:37.960Z,21.02
2023-05-06T10:40:05.246Z,19.17
2023-05-06T10:42:35.499Z,19.58
2023-05-06T10:45:04.093Z,18.88
2023-05-06T10:48:03.071Z,21.33
2023-05-06T10:50:29.475Z,19.05
2023-05-06T10:52:59.369Z,20.25
2023-05-06T10:55:34.099Z,19.43
2023-05-06T10:58:16.307Z,19.40
2023-05-06T11:00:54.120Z,19.48
2023-05-06T11:03:23.912Z,18.35
2023-05-06T11:05:51.946Z,20.65
2023-05-06T11:08:27.864Z,18.98
2023-05-06T11:10:54.694Z,19.30
2023-05-06T11:13:35.096Z,20.45
2023-05-06T11:16:02.500Z,20.20
2023-05-06T11:18:35.731Z,17.90
2023-05-06T11:21:05.101Z,20.70
2023-05-06T11:23:52.617Z,19.92
2023-05-06T11:26:22.427Z,17.40
2023-05-06T11:28:54.508Z,18.85
2023-05-06T11:31:22.890Z,18.60
2023-05-06T11:33:53.669Z,19.52
2023-05-06T11:36:27.512Z,20.92
2023-05-06T11:38:54.277Z,20.15
2023-05-06T11:41:24.028Z,19.27
2023-05-06T11:43:52.841Z,19.67
2023-05-06T11:46:20.654Z,17.77
2023-05-06T11:48:47.696Z,18.80
2023-05-06T11:51:14.272Z,15.38
2023-05-06T11:53:40.703Z,17.27
2023-05-06T11:56:07.633Z,17.15
2023-05-06T11:58:34.176Z,16.98
2023-05-06T12:01:03.154Z,16.33
2023-05-06T12:03:31.394Z,16.45
2023-05-06T12:05:58.877Z,17.92
2023-05-06T12:08:29.592Z,15.50
2023-05-06T12:11:14.568Z,17.63
2023-05-06T12:13:41.195Z,19.27
2023-05-06T12:16:08.464Z,15.60
2023-05-06T12:18:35.081Z,15.60
2023-05-06T12:21:05.897Z,19.65
2023-05-06T12:23:32.424Z,15.10
2023-05-06T12:26:06.664Z,19.60
2023-05-06T12:28:35.841Z,20.25
2023-05-06T12:31:22.455Z,18.17
2023-05-06T12:33:50.290Z,16.58
2023-05-06T12:36:20.130Z,17.50
2023-05-06T12:38:53.976Z,13.57
2023-05-06T12:41:21.181Z,17.40
2023-05-06T12:43:48.062Z,18.55
2023-05-06T12:46:16.781Z,17.38
2023-05-06T12:49:02.191Z,15.43
2023-05-06T12:51:30.716Z,18.85
2023-05-06T12:53:57.154Z,17.02
2023-05-06T12:56:23.599Z,17.75
2023-05-06T12:59:01.132Z,16.40
2023-05-06T13:01:27.739Z,17.65
2023-05-06T13:03:58.367Z,15.35
2023-05-06T13:06:25.154Z,15.60
2023-05-06T13:08:51.560Z,18.02
2023-05-06T13:11:18.001Z,17.50
2023-05-06T13:13:44.469Z,14.88
2023-05-06T13:16:11.094Z,16.40
2023-05-06T13:18:37.571Z,16.83
2023-05-06T13:21:04.089Z,14.48
2023-05-06T13:23:31.707Z,14.73
2023-05-06T13:26:04.682Z,11.02
2023-05-06T13:28:33.228Z,11.80
2023-05-06T13:30:59.889Z,13.15
2023-05-06T13:33:26.390Z,13.75
2023-05-06T13:35:52.821Z,14.50
2023-05-06T13:38:19.480Z,12.57
2023-05-06T13:40:51.550Z,15.98
2023-05-06T13:43:18.845Z,13.88
2023-05-06T13:45:45.513Z,15.10
2023-05-06T13:48:13.150Z,11.52
2023-05-06T13:50:43.263Z,14.48
2023-05-06T13:53:10.736Z,12.98
2023-05-06T13:55:37.503Z,13.60
2023-05-06T13:58:05.115Z,13.25
2023-05-06T14:00:31.985Z,12.45
2023-05-06T14:02:58.637Z,12.05
2023-05-06T14:05:28.038Z,13.43
2023-05-06T14:07:57.678Z,12.93
2023-05-06T14:10:24.132Z,11.23
2023-05-06T14:12:51.261Z,10.20
2023-05-06T14:15:17.817Z,12.55
2023-05-06T14:17:44.326Z,10.98
2023-05-06T14:20:11.190Z,12.32
2023-05-06T14:22:40.809Z,11.50
2023-05-06T14:25:08.694Z,12.25
2023-05-06T14:27:36.000Z,11.80
2023-05-06T14:30:08.223Z,13.32
2023-05-06T14:32:35.841Z,12.70
2023-05-06T14:35:02.396Z,13.02
2023-05-06T14:37:28.806Z,14.52
2023-05-06T14:39:57.279Z,12.68
2023-05-06T14:42:23.784Z,10.90
2023-05-06T14:44:50.727Z,12.80
2023-05-06T14:47:17.551Z,16.70
2023-05-06T14:49:44.130Z,14.18
2023-05-06T14:52:10.625Z,12.30
2023-05-06T14:54:42.039Z,13.23
2023-05-06T14:57:12.054Z,15.10
2023-05-06T14:59:38.699Z,13.73
2023-05-06T15:02:09.003Z,12.93
2023-05-06T15:04:36.521Z,12.00
2023-05-06T15:07:03.430Z,11.38
2023-05-06T15:09:30.036Z,12.13
2023-05-06T15:11:56.982Z,12.10
2023-05-06T15:14:23.464Z,12.20
2023-05-06T15:16:49.914Z,11.63
2023-05-06T15:19:16.334Z,10.40
2023-05-06T15:21:42.854Z,12.77
2023-05-06T15:24:09.520Z,10.70
2023-05-06T15:26:35.957Z,10.57
2023-05-06T15:29:02.376Z,11.02
2023-05-06T15:31:31.305Z,11.60
2023-05-06T15:34:00.379Z,12.55
2023-05-06T15:36:27.455Z,11.05
2023-05-06T15:39:00.171Z,11.63
2023-05-06T15:41:31.526Z,13.38
2023-05-06T15:43:59.639Z,13.40
2023-05-06T15:46:29.746Z,11.13
2023-05-06T15:49:15.679Z,11.48
2023-05-06T15:51:43.279Z,11.07
2023-05-06T15:54:09.801Z,11.15
2023-05-06T15:56:40.651Z,10.13
2023-05-06T15:59:08.627Z,10.32
2023-05-06T16:01:53.995Z,10.25
2023-05-06T16:04:22.317Z,9.85
2023-05-06T16:06:49.435Z,10.23
2023-05-06T16:09:15.887Z,10.10
2023-05-06T16:11:42.278Z,10.15
2023-05-06T16:14:08.630Z,9.82
2023-05-06T16:16:35.225Z,12.43
2023-05-06T16:19:01.799Z,9.73
2023-05-06T16:21:28.674Z,10.00
2023-05-06T16:23:55.156Z,9.90
2023-05-06T16:26:21.870Z,11.10
2023-05-06T16:28:48.378Z,9.13
2023-05-06T16:31:14.965Z,9.80
2023-05-06T16:33:41.412Z,10.05
2023-05-06T16:36:08.167Z,11.02
2023-05-06T16:38:34.614Z,11.23
2023-05-06T16:41:01.080Z,13.20
2023-05-06T16:43:27.814Z,13.00
2023-05-06T16:45:54.229Z,12.05
2023-05-06T16:48:21.040Z,12.00
2023-05-06T16:50:47.629Z,9.75
2023-05-06T16:53:14.674Z,12.68
2023-05-06T16:55:46.803Z,13.55
2023-05-06T16:58:13.202Z,12.52
2023-05-06T17:00:39.829Z,9.30
2023-05-06T17:03:06.449Z,12.30
2023-05-06T17:05:33.047Z,12.70
2023-05-06T17:07:59.512Z,12.05
2023-05-06T17:10:29.324Z,10.80
2023-05-06T17:12:57.384Z,10.88
2023-05-06T17:15:24.787Z,10.25
2023-05-06T17:17:55.372Z,11.68
2023-05-06T17:20:22.775Z,10.43
2023-05-06T17:22:49.687Z,10.27
2023-05-06T17:25:16.402Z,11.73
2023-05-06T17:27:43.026Z,12.02
2023-05-06T17:30:09.829Z,10.40
2023-05-06T17:32:36.583Z,10.50
2023-05-06T17:35:03.336Z,12.18
2023-05-06T17:37:31.205Z,11.63
2023-05-06T17:39:57.808Z,12.88
2023-05-06T17:42:24.232Z,12.60
2023-05-06T17:44:51.066Z,13.48
2023-05-06T17:47:17.626Z,12.43
2023-05-06T17:49:44.139Z,13.77
2023-05-06T17:52:10.643Z,11.40
2023-05-06T17:54:38.078Z,13.60
2023-05-06T17:57:04.619Z,12.55
2023-05-06T17:59:31.109Z,12.20
2023-05-06T18:01:57.750Z,13.02
2023-05-06T18:04:24.409Z,12.68
2023-05-06T18:06:51.220Z,13.35
2023-05-06T18:09:17.727Z,11.73
2023-05-06T18:11:44.236Z,12.25
2023-05-06T18:14:11.301Z,13.65
2023-05-06T18:16:38.054Z,14.05
2023-05-06T18:19:05.155Z,12.85
2023-05-06T18:21:33.829Z,14.75
2023-05-06T18:24:05.856Z,12.88
2023-05-06T18:26:45.218Z,13.32
2023-05-06T18:29:12.494Z,14.25
2023-05-06T18:31:39.020Z,14.68
2023-05-06T18:34:05.601Z,15.27
2023-05-06T18:36:32.608Z,14.50
2023-05-06T18:38:59.074Z,15.63
2023-05-06T18:41:25.690Z,14.73
2023-05-06T18:43:52.321Z,13.30
2023-05-06T18:46:18.836Z,13.88
2023-05-06T18:48:45.423Z,14.63
2023-05-06T18:51:17.132Z,12.90
2023-05-06T18:53:44.769Z,12.18
2023-05-06T18:56:11.515Z,12.43
2023-05-06T18:58:39.054Z,14.88
2023-05-06T19:01:07.118Z,13.52
2023-05-06T19:03:34.867Z,12.75
2023-05-06T19:06:03.716Z,13.32
2023-05-06T19:08:31.116Z,12.73
2023-05-06T19:11:01.524Z,16.20
2023-05-06T19:13:28.018Z,17.13
2023-05-06T19:15:54.647Z,15.55
2023-05-06T19:18:21.317Z,16.35
2023-05-06T19:20:47.793Z,16.15
2023-05-06T19:23:14.214Z,15.60
2023-05-06T19:25:40.589Z,15.02
2023-05-06T19:28:07.313Z,14.18
2023-05-06T19:30:35.009Z,11.43
2023-05-06T19:33:02.264Z,13.15
2023-05-06T19:35:28.847Z,11.88
2023-05-06T19:37:56.072Z,13.45
2023-05-06T19:40:22.717Z,12.48
2023-05-06T19:42:49.138Z,12.43
2023-05-06T19:45:16.755Z,13.98
2023-05-06T19:47:45.737Z,12.13
2023-05-06T19:50:12.788Z,12.93
2023-05-06T19:52:39.621Z,12.77
2023-05-06T19:55:06.612Z,13.15
2023-05-06T19:57:33.729Z,14.77
2023-05-06T20:00:04.977Z,15.05
2023-05-06T20:02:32.531Z,15.70
2023-05-06T20:05:00.207Z,15.32
2023-05-06T20:07:27.161Z,16.02
2023-05-06T20:09:55.432Z,15.98
2023-05-06T20:12:22.955Z,16.60
2023-05-06T20:14:49.713Z,17.40
2023-05-06T20:17:16.943Z,18.45
2023-05-06T20:19:47.146Z,19.08
2023-05-06T20:22:13.620Z,16.63
2023-05-06T20:24:43.833Z,19.25
2023-05-06T20:27:10.491Z,18.63
2023-05-06T20:29:36.948Z,18.70
2023-05-06T20:32:03.467Z,19.38
2023-05-06T20:34:29.964Z,18.35
2023-05-06T20:36:56.602Z,19.02
2023-05-06T20:39:26.088Z,20.23
2023-05-06T20:41:52.546Z,18.20
2023-05-06T20:44:18.967Z,18.98
2023-05-06T20:46:45.373Z,21.40
2023-05-06T20:49:11.816Z,21.67
2023-05-06T20:51:38.235Z,19.15
2023-05-06T20:54:04.727Z,19.58
2023-05-06T20:57:14.690Z,20.02
2023-05-06T20:59:41.199Z,20.10
2023-05-06T21:02:07.776Z,22.98
2023-05-06T21:04:34.271Z,19.23
2023-05-06T21:07:00.736Z,22.05
2023-05-06T21:09:28.092Z,23.45
2023-05-06T21:11:55.376Z,20.55
2023-05-06T21:14:24.684Z,22.08
2023-05-06T21:16:52.136Z,22.33
2023-05-06T21:19:18.994Z,22.50
2023-05-06T21:21:45.638Z,23.55
2023-05-06T21:24:12.861Z,21.45
2023-05-06T21:26:39.684Z,22.00
2023-05-06T21:29:06.114Z,24.98
2023-05-06T21:31:32.605Z,24.38
2023-05-06T21:33:59.287Z,24.98
2023-05-06T21:36:26.067Z,23.83
2023-05-06T21:39:01.730Z,23.38
2023-05-06T21:41:28.178Z,23.48
2023-05-06T21:43:54.884Z,22.95
2023-05-06T21:46:21.420Z,25.17
2023-05-06T21:48:47.917Z,23.27
2023-05-06T21:51:14.939Z,24.02
2023-05-06T21:53:41.373Z,26.77
2023-05-06T21:56:07.785Z,24.75
2023-05-06T21:58:34.441Z,24.35
2023-05-06T22:01:00.839Z,26.50
2023-05-06T22:03:27.831Z,26.17
2023-05-06T22:05:54.338Z,30.42
2023-05-06T22:08:20.759Z,28.33
2023-05-06T22:10:47.139Z,30.30
2023-05-06T22:13:13.556Z,28.55
2023-05-06T22:15:39.962Z,26.83
2023-05-06T22:18:07.840Z,29.30
2023-05-06T22:20:36.477Z,29.90
2023-05-06T22:23:03.704Z,30.13
2023-05-06T22:25:30.113Z,30.80
2023-05-06T22:27:56.619Z,30.80
2023-05-06T22:30:23.002Z,30.40
2023-05-06T22:32:49.529Z,29.23
2023-05-06T22:35:16.840Z,29.23
2023-05-06T22:37:43.284Z,28.17
2023-05-06T22:40:10.918Z,31.08
2023-05-06T22:42:38.158Z,29.63
2023-05-06T22:45:05.642Z,30.58
2023-05-06T22:47:32.340Z,31.10
2023-05-06T22:49:58.848Z,30.10
2023-05-06T22:52:25.423Z,30.83
2023-05-06T22:54:52.159Z,31.20
2023-05-06T22:57:23.172Z,31.80
2023-05-06T22:59:49.659Z,31.40
2023-05-06T23:02:16.098Z,33.13
2023-05-06T23:04:42.607Z,35.45
2023-05-06T23:07:09.010Z,33.40
2023-05-06T23:09:35.586Z,31.90
2023-05-06T23:12:02.754Z,32.55
2023-05-06T23:14:29.163Z,31.75
2023-05-06T23:16:55.818Z,35.90
2023-05-06T23:19:22.353Z,36.78
2023-05-06T23:21:48.878Z,33.00
2023-05-06T23:24:15.326Z,34.85
2023-05-06T23:26:41.728Z,36.08
2023-05-06T23:29:08.148Z,36.42
2023-05-06T23:31:34.696Z,36.60
2023-05-06T23:34:01.156Z,36.70
2023-05-06T23:36:27.566Z,35.97
2023-05-06T23:38:53.974Z,35.65
2023-05-06T23:41:20.347Z,38.15
2023-05-06T23:43:46.763Z,37.85
2023-05-06T23:46:13.212Z,37.28
2023-05-06T23:48:39.738Z,36.53
2023-05-06T23:51:06.211Z,36.35
2023-05-06T23:53:32.624Z,37.80
2023-05-06T23:55:59.077Z,36.92
2023-05-06T23:58:25.512Z,36.00
